Time;durP1;ratioP1;P1;durP2;ratioP2;P2;SDS_P1;SDS_P2;PMS_P1;PMS_P2;Temp;Humidity;BMP_temperature;BMP_pressure;BME280_temperature;BME280_humidity;BME280_pressure;Samples;Min_cycle;Max_cycle;Signal;HPM_P1;HPM_P2
2022/04/17 00:02:18;;;;;;;4.72;1.30;;;;;;;;;;5112007;28;20028;-70
2022/04/17 00:04:44;;;;;;;4.53;1.23;;;;;;;;;;5111832;28;20028;-68
2022/04/17 00:07:09;;;;;;;4.32;1.00;;;;;;;;;;5111738;28;20043;-71
2022/04/17 00:09:35;;;;;;;7.80;1.20;;;;;;;;;;5112049;28;20531;-74
2022/04/17 00:12:01;;;;;;;4.20;1.10;;;;;;;;;;5111897;28;20036;-74
2022/04/17 00:14:27;;;;;;;2.50;1.05;;;;;;;;;;5111688;28;20038;-68
2022/04/17 00:16:55;;;;;;;5.30;1.17;;;;;;;;;;5111459;27;20028;-74
2022/04/17 00:19:20;;;;;;;5.38;1.20;;;;;;;;;;5111811;27;20128;-70
2022/04/17 00:21:47;;;;;;;7.20;1.17;;;;;;;;;;5111775;28;20475;-68
2022/04/17 00:24:13;;;;;;;5.43;1.20;;;;;;;;;;5111557;28;20040;-68
2022/04/17 00:26:39;;;;;;;4.45;1.17;;;;;;;;;;5111643;28;20027;-71
2022/04/17 00:29:04;;;;;;;3.88;1.20;;;;;;;;;;5111485;28;20169;-67
2022/04/17 00:31:30;;;;;;;5.68;1.15;;;;;;;;;;5111240;28;20064;-66
2022/04/17 00:33:55;;;;;;;6.88;1.30;;;;;;;;;;5111223;28;20023;-70
2022/04/17 00:36:21;;;;;;;4.25;1.35;;;;;;;;;;5111348;28;20460;-70
2022/04/17 00:38:46;;;;;;;6.15;1.10;;;;;;;;;;5111719;28;20403;-69
2022/04/17 00:41:12;;;;;;;4.93;1.13;;;;;;;;;;5111454;28;20406;-68
2022/04/17 00:43:45;;;;;;;5.65;1.35;;;;;;;;;;5111378;28;20376;-69
2022/04/17 00:46:11;;;;;;;5.53;1.27;;;;;;;;;;5110818;28;20417;-68
2022/04/17 00:48:36;;;;;;;5.72;1.15;;;;;;;;;;5111059;28;20486;-68
2022/04/17 00:51:03;;;;;;;4.60;1.08;;;;;;;;;;5111192;28;20023;-72
2022/04/17 00:53:29;;;;;;;5.82;1.30;;;;;;;;;;5111111;28;20016;-68
2022/04/17 00:55:55;;;;;;;5.70;1.50;;;;;;;;;;5111071;28;20566;-68
2022/04/17 00:58:21;;;;;;;6.63;1.40;;;;;;;;;;5111181;28;20202;-72
2022/04/17 01:00:46;;;;;;;7.18;1.20;;;;;;;;;;5111001;28;20241;-70
2022/04/17 01:03:13;;;;;;;4.68;1.30;;;;;;;;;;5110869;28;20023;-72
2022/04/17 01:05:42;;;;;;;7.07;1.25;;;;;;;;;;5110773;28;20030;-71
2022/04/17 01:08:11;;;;;;;10.02;1.55;;;;;;;;;;5110905;28;20031;-71
2022/04/17 01:10:38;;;;;;;5.63;1.33;;;;;;;;;;5110819;28;20097;-67
2022/04/17 01:13:04;;;;;;;5.53;1.20;;;;;;;;;;5110869;28;20026;-69
2022/04/17 01:15:30;;;;;;;5.90;1.33;;;;;;;;;;5110753;28;20019;-74
2022/04/17 01:17:56;;;;;;;6.05;1.40;;;;;;;;;;5110653;28;20076;-67
2022/04/17 01:20:22;;;;;;;3.83;1.23;;;;;;;;;;5110786;28;20039;-71
2022/04/17 01:26:56;;;;;;;4.93;1.30;;;;;;;;;;5110719;28;20034;-72
2022/04/17 01:28:25;;;;;;;5.70;1.38;;;;;;;;;;5110841;28;20581;-70
2022/04/17 01:30:52;;;;;;;5.82;1.30;;;;;;;;;;5110431;28;20048;-72
2022/04/17 01:33:18;;;;;;;7.07;1.85;;;;;;;;;;5110690;28;20027;-69
2022/04/17 01:35:43;;;;;;;4.15;1.40;;;;;;;;;;5110432;28;20079;-72
2022/04/17 01:38:08;;;;;;;6.07;1.25;;;;;;;;;;5110442;28;20019;-71
2022/04/17 01:40:34;;;;;;;5.72;1.33;;;;;;;;;;5109922;28;20391;-67
2022/04/17 01:42:59;;;;;;;8.38;1.70;;;;;;;;;;5110472;28;20057;-73
2022/04/17 01:45:25;;;;;;;7.32;1.30;;;;;;;;;;5110219;28;20459;-76
2022/04/17 01:47:50;;;;;;;5.95;1.55;;;;;;;;;;5110305;28;20399;-72
2022/04/17 01:50:16;;;;;;;6.25;1.40;;;;;;;;;;5110531;28;20513;-74
2022/04/17 01:52:41;;;;;;;8.55;1.42;;;;;;;;;;5110441;28;20394;-71
2022/04/17 01:55:07;;;;;;;4.55;1.30;;;;;;;;;;5110214;28;20398;-71
2022/04/17 01:57:33;;;;;;;4.10;1.13;;;;;;;;;;5110023;28;20027;-71
2022/04/17 01:59:59;;;;;;;7.80;1.60;;;;;;;;;;5110277;28;20603;-73
2022/04/17 02:02:24;;;;;;;5.30;1.42;;;;;;;;;;5110550;28;20492;-70
2022/04/17 02:04:50;;;;;;;7.13;1.40;;;;;;;;;;5110526;28;20459;-73
2022/04/17 02:07:15;;;;;;;4.97;1.45;;;;;;;;;;5110296;28;20028;-69
2022/04/17 02:09:41;;;;;;;6.22;1.30;;;;;;;;;;5110209;28;20031;-73
2022/04/17 02:12:06;;;;;;;6.35;1.38;;;;;;;;;;5110165;28;20106;-72
2022/04/17 02:14:32;;;;;;;8.90;1.40;;;;;;;;;;5109858;28;20119;-71
2022/04/17 02:16:57;;;;;;;7.35;1.60;;;;;;;;;;5109834;28;20426;-73
2022/04/17 02:19:23;;;;;;;5.80;1.10;;;;;;;;;;5110032;28;20034;-72
2022/04/17 02:21:48;;;;;;;5.57;1.45;;;;;;;;;;5110050;28;20034;-73
2022/04/17 02:24:13;;;;;;;6.57;1.48;;;;;;;;;;5109980;28;20044;-71
2022/04/17 02:26:39;;;;;;;4.53;1.20;;;;;;;;;;5109877;28;20080;-72
2022/04/17 02:29:04;;;;;;;5.57;1.50;;;;;;;;;;5110202;28;20072;-69
2022/04/17 02:31:30;;;;;;;6.80;1.40;;;;;;;;;;5109701;28;20035;-68
2022/04/17 02:33:57;;;;;;;5.75;1.55;;;;;;;;;;5109787;28;20402;-75
2022/04/17 02:36:23;;;;;;;7.70;1.50;;;;;;;;;;5109779;28;20115;-74
2022/04/17 02:38:48;;;;;;;7.03;1.70;;;;;;;;;;5110194;28;20099;-76
2022/04/17 02:41:14;;;;;;;7.00;1.50;;;;;;;;;;5110086;28;20032;-74
2022/04/17 02:43:39;;;;;;;7.22;1.45;;;;;;;;;;5110257;28;20028;-74
2022/04/17 02:46:05;;;;;;;9.18;1.30;;;;;;;;;;5109465;28;20024;-68
2022/04/17 02:48:31;;;;;;;5.80;1.50;;;;;;;;;;5109738;28;20028;-72
2022/04/17 02:50:57;;;;;;;7.55;1.75;;;;;;;;;;5110175;28;20081;-70
2022/04/17 02:53:24;;;;;;;8.43;1.55;;;;;;;;;;5113533;28;20028;-66
2022/04/17 02:55:50;;;;;;;5.65;1.50;;;;;;;;;;5113407;28;20031;-69
2022/04/17 02:58:15;;;;;;;9.43;2.05;;;;;;;;;;5113610;28;20030;-74
2022/04/17 03:06:11;;;;;;;7.10;1.90;;;;;;;;;;5113407;28;20066;-70
2022/04/17 03:08:40;;;;;;;9.05;1.50;;;;;;;;;;5113107;28;20035;-72
2022/04/17 03:11:06;;;;;;;8.82;1.70;;;;;;;;;;5113285;28;20035;-71
2022/04/17 03:13:31;;;;;;;7.93;1.70;;;;;;;;;;5113164;27;20032;-75
2022/04/17 03:15:57;;;;;;;7.93;1.63;;;;;;;;;;5113055;28;20467;-71
2022/04/17 03:18:23;;;;;;;9.05;2.00;;;;;;;;;;5112828;28;20023;-74
2022/04/17 03:20:48;;;;;;;7.38;1.80;;;;;;;;;;5113381;28;20039;-68
2022/04/17 03:23:14;;;;;;;7.60;1.70;;;;;;;;;;5112743;28;20042;-71
2022/04/17 03:25:40;;;;;;;7.93;1.50;;;;;;;;;;5112382;28;20296;-75
2022/04/17 03:28:06;;;;;;;5.43;1.50;;;;;;;;;;5112799;28;20035;-68
2022/04/17 03:30:31;;;;;;;8.70;1.90;;;;;;;;;;5112548;28;20030;-72
2022/04/17 03:32:57;;;;;;;7.55;1.60;;;;;;;;;;5113208;28;20054;-72
2022/04/17 03:35:23;;;;;;;7.75;1.77;;;;;;;;;;5112608;28;20038;-73
2022/04/17 03:37:48;;;;;;;7.05;1.50;;;;;;;;;;5112471;28;20035;-73
2022/04/17 03:40:16;;;;;;;5.57;1.58;;;;;;;;;;5112030;28;20027;-68
2022/04/17 03:42:42;;;;;;;6.43;1.67;;;;;;;;;;5112235;28;20391;-71
2022/04/17 03:45:11;;;;;;;5.53;1.50;;;;;;;;;;5112294;28;20028;-72
2022/04/17 03:47:37;;;;;;;6.75;1.35;;;;;;;;;;5112151;28;20543;-69
2022/04/17 03:50:06;;;;;;;8.65;1.60;;;;;;;;;;5112406;28;20024;-68
2022/04/17 03:52:41;;;;;;;5.28;1.40;;;;;;;;;;5112643;28;20055;-69
2022/04/17 03:55:07;;;;;;;6.90;1.50;;;;;;;;;;5112174;28;20352;-73
2022/04/17 03:57:33;;;;;;;7.03;1.20;;;;;;;;;;5111875;28;20479;-73
2022/04/17 03:59:59;;;;;;;4.43;1.33;;;;;;;;;;5111915;28;20027;-73
2022/04/17 04:02:25;;;;;;;4.13;1.30;;;;;;;;;;5111683;28;20600;-73
2022/04/17 04:04:50;;;;;;;3.80;1.30;;;;;;;;;;5112130;28;20138;-74
2022/04/17 04:07:16;;;;;;;3.85;1.23;;;;;;;;;;5111706;28;20031;-71
2022/04/17 04:09:42;;;;;;;5.00;1.40;;;;;;;;;;5112103;28;20032;-69
2022/04/17 04:12:07;;;;;;;7.20;1.70;;;;;;;;;;5112226;28;20092;-73
2022/04/17 04:14:33;;;;;;;4.68;1.40;;;;;;;;;;5111658;28;20067;-68
2022/04/17 04:17:01;;;;;;;5.15;1.40;;;;;;;;;;5112084;28;20059;-71
2022/04/17 04:19:29;;;;;;;9.73;1.45;;;;;;;;;;5111950;28;20176;-73
2022/04/17 04:21:55;;;;;;;5.72;1.27;;;;;;;;;;5111710;28;20106;-70
2022/04/17 04:24:20;;;;;;;7.53;1.40;;;;;;;;;;5111807;28;20582;-74
2022/04/17 04:29:30;;;;;;;4.43;1.25;;;;;;;;;;5111913;28;20027;-73
2022/04/17 04:31:55;;;;;;;8.30;1.40;;;;;;;;;;5111711;28;20020;-69
2022/04/17 04:34:21;;;;;;;8.45;1.38;;;;;;;;;;5111448;28;20055;-72
2022/04/17 04:36:46;;;;;;;7.50;1.70;;;;;;;;;;5111414;28;20020;-72
2022/04/17 04:39:11;;;;;;;8.15;1.50;;;;;;;;;;5111686;28;20043;-67
2022/04/17 04:41:37;;;;;;;4.47;1.30;;;;;;;;;;5111510;28;20073;-74
2022/04/17 04:44:02;;;;;;;6.13;1.35;;;;;;;;;;5111381;28;20066;-74
2022/04/17 04:46:28;;;;;;;8.57;1.40;;;;;;;;;;5111095;28;20203;-72
2022/04/17 04:51:38;;;;;;;7.93;1.35;;;;;;;;;;5111424;28;20038;-68
2022/04/17 04:54:07;;;;;;;5.60;1.30;;;;;;;;;;5111199;28;20030;-74
2022/04/17 04:56:32;;;;;;;4.63;1.30;;;;;;;;;;5109736;28;20385;-67
2022/04/17 04:58:58;;;;;;;8.52;1.75;;;;;;;;;;5111001;28;20034;-74
2022/04/17 05:01:23;;;;;;;5.70;1.60;;;;;;;;;;5111251;28;20114;-67
2022/04/17 05:03:49;;;;;;;7.32;1.45;;;;;;;;;;5111102;28;20054;-73
2022/04/17 05:06:14;;;;;;;6.15;1.45;;;;;;;;;;5110885;28;20507;-72
2022/04/17 05:08:40;;;;;;;6.25;1.40;;;;;;;;;;5110677;28;20019;-74
2022/04/17 05:11:05;;;;;;;7.28;1.40;;;;;;;;;;5110640;28;20020;-67
2022/04/17 05:13:31;;;;;;;4.85;1.55;;;;;;;;;;5110580;28;20020;-73
2022/04/17 05:15:56;;;;;;;7.35;1.70;;;;;;;;;;5110560;28;20544;-68
2022/04/17 05:18:22;;;;;;;7.38;1.70;;;;;;;;;;5109359;28;20020;-73
2022/04/17 05:20:47;;;;;;;7.63;1.60;;;;;;;;;;5111192;28;20459;-73
2022/04/17 05:23:22;;;;;;;9.18;1.70;;;;;;;;;;5110615;28;20080;-67
2022/04/17 05:25:50;;;;;;;7.65;2.25;;;;;;;;;;5110319;28;20048;-73
2022/04/17 05:28:17;;;;;;;8.05;1.50;;;;;;;;;;5110478;28;20054;-73
2022/04/17 05:30:44;;;;;;;6.93;1.70;;;;;;;;;;5110454;28;20111;-69
2022/04/17 05:33:10;;;;;;;5.45;1.38;;;;;;;;;;5110652;28;20415;-73
2022/04/17 05:35:36;;;;;;;5.75;1.42;;;;;;;;;;5110656;28;20023;-69
2022/04/17 05:38:02;;;;;;;8.65;1.58;;;;;;;;;;5110292;28;20023;-74
2022/04/17 05:40:28;;;;;;;4.70;1.40;;;;;;;;;;5110265;28;20020;-71
2022/04/17 05:42:55;;;;;;;5.00;1.40;;;;;;;;;;5110360;28;20034;-68
2022/04/17 05:45:22;;;;;;;7.32;1.77;;;;;;;;;;5110202;28;20026;-69
2022/04/17 05:47:47;;;;;;;6.80;1.45;;;;;;;;;;5110084;28;20050;-71
2022/04/17 05:50:13;;;;;;;6.40;1.40;;;;;;;;;;5110405;28;20464;-68
2022/04/17 05:52:39;;;;;;;8.13;1.77;;;;;;;;;;5110512;28;20024;-70
2022/04/17 05:55:05;;;;;;;6.55;1.50;;;;;;;;;;5110360;28;20085;-72
2022/04/17 05:57:31;;;;;;;5.68;1.58;;;;;;;;;;5110145;28;20039;-71
2022/04/17 05:59:56;;;;;;;9.57;1.63;;;;;;;;;;5110121;28;20103;-71
2022/04/17 06:02:22;;;;;;;4.70;1.35;;;;;;;;;;5110213;28;20660;-71
2022/04/17 06:04:50;;;;;;;5.88;1.40;;;;;;;;;;5110163;28;20163;-70
2022/04/17 06:07:26;;;;;;;9.65;1.90;;;;;;;;;;5109852;28;20111;-71
2022/04/17 06:09:51;;;;;;;5.53;1.25;;;;;;;;;;5110251;28;20028;-73
2022/04/17 06:12:17;;;;;;;9.65;1.42;;;;;;;;;;5110164;28;20064;-74
2022/04/17 06:14:43;;;;;;;6.20;1.55;;;;;;;;;;5109926;28;20486;-69
2022/04/17 06:17:10;;;;;;;5.45;1.50;;;;;;;;;;5110061;28;20028;-73
2022/04/17 06:19:36;;;;;;;7.65;1.70;;;;;;;;;;5109810;28;20028;-71
2022/04/17 06:22:01;;;;;;;8.13;1.60;;;;;;;;;;5110628;28;20090;-70
2022/04/17 06:24:27;;;;;;;6.97;1.70;;;;;;;;;;5110026;28;20346;-71
2022/04/17 06:26:52;;;;;;;6.50;1.58;;;;;;;;;;5113766;28;20432;-69
2022/04/17 06:29:18;;;;;;;8.25;1.50;;;;;;;;;;5114007;28;20024;-72
2022/04/17 06:31:45;;;;;;;6.35;1.50;;;;;;;;;;5113791;28;20020;-70
2022/04/17 06:34:15;;;;;;;4.45;1.52;;;;;;;;;;5114257;28;20026;-69
2022/04/17 06:36:41;;;;;;;5.13;1.40;;;;;;;;;;5113637;28;20019;-70
2022/04/17 06:39:07;;;;;;;9.45;1.80;;;;;;;;;;5113662;28;20432;-71
2022/04/17 06:41:33;;;;;;;6.15;1.50;;;;;;;;;;5113723;28;20026;-74
2022/04/17 06:43:59;;;;;;;6.22;1.50;;;;;;;;;;5113576;28;20058;-74
2022/04/17 06:46:24;;;;;;;5.82;1.50;;;;;;;;;;5113425;28;20020;-68
2022/04/17 06:48:50;;;;;;;8.95;1.73;;;;;;;;;;5113463;28;20020;-71
2022/04/17 06:51:16;;;;;;;3.38;1.50;;;;;;;;;;5113456;28;20027;-68
2022/04/17 06:53:42;;;;;;;6.07;1.50;;;;;;;;;;5113484;28;20024;-73
2022/04/17 06:56:08;;;;;;;7.55;1.40;;;;;;;;;;5113550;28;20077;-73
2022/04/17 06:58:33;;;;;;;3.88;1.50;;;;;;;;;;5113408;28;20505;-74
2022/04/17 07:00:59;;;;;;;6.95;1.77;;;;;;;;;;5113243;28;20128;-71
2022/04/17 07:03:24;;;;;;;6.78;1.50;;;;;;;;;;5113204;28;20490;-69
2022/04/17 07:05:50;;;;;;;5.47;1.50;;;;;;;;;;5113097;28;20353;-74
2022/04/17 07:08:16;;;;;;;4.72;1.65;;;;;;;;;;5112801;28;20486;-70
2022/04/17 07:10:42;;;;;;;6.82;1.70;;;;;;;;;;5112920;28;20076;-69
2022/04/17 07:13:11;;;;;;;8.35;1.80;;;;;;;;;;5113393;28;20023;-72
2022/04/17 07:15:36;;;;;;;4.35;1.55;;;;;;;;;;5113095;28;20472;-71
2022/04/17 07:18:02;;;;;;;4.53;1.42;;;;;;;;;;5112825;28;20024;-72
2022/04/17 07:20:28;;;;;;;6.38;1.52;;;;;;;;;;5113003;28;20053;-73
2022/04/17 07:22:53;;;;;;;6.95;1.70;;;;;;;;;;5112774;28;20122;-72
2022/04/17 07:25:19;;;;;;;4.85;1.50;;;;;;;;;;5112735;27;20039;-68
2022/04/17 07:27:48;;;;;;;7.38;2.25;;;;;;;;;;5112525;28;20024;-68
2022/04/17 07:30:20;;;;;;;7.10;1.80;;;;;;;;;;5112544;28;20495;-69
2022/04/17 07:32:51;;;;;;;4.65;1.60;;;;;;;;;;5113122;28;20035;-68
2022/04/17 07:35:18;;;;;;;;;;;;;;;;;;5112258;28;20027;-70
2022/04/17 07:38:03;;;;;;;3.97;1.25;;;;;;;;;;5112026;28;20294;-69
2022/04/17 07:40:31;;;;;;;3.40;1.40;;;;;;;;;;5112409;28;20376;-68
2022/04/17 07:42:59;;;;;;;4.75;1.73;;;;;;;;;;5112411;28;20054;-69
2022/04/17 07:45:25;;;;;;;4.32;1.55;;;;;;;;;;5112402;28;20039;-67
2022/04/17 07:47:51;;;;;;;5.38;1.60;;;;;;;;;;5112556;28;20031;-70
2022/04/17 07:50:19;;;;;;;6.45;1.52;;;;;;;;;;5112325;28;20478;-69
2022/04/17 07:52:45;;;;;;;8.80;1.80;;;;;;;;;;5112535;28;20117;-72
2022/04/17 07:55:13;;;;;;;5.70;2.00;;;;;;;;;;5112715;28;20107;-72
2022/04/17 08:00:22;;;;;;;3.63;1.50;;;;;;;;;;5111718;28;20028;-71
2022/04/17 08:03:06;;;;;;;7.85;1.90;;;;;;;;;;5112077;28;20074;-68
2022/04/17 08:05:34;;;;;;;6.93;1.60;;;;;;;;;;5112019;28;20024;-72
2022/04/17 08:08:00;;;;;;;5.28;1.70;;;;;;;;;;5112002;28;20069;-67
2022/04/17 08:10:25;;;;;;;6.38;1.80;;;;;;;;;;5111894;28;20261;-67
2022/04/17 08:12:51;;;;;;;5.05;1.70;;;;;;;;;;5112290;28;20424;-73
2022/04/17 08:15:17;;;;;;;4.97;1.52;;;;;;;;;;5111763;28;20313;-68
2022/04/17 08:17:42;;;;;;;7.88;1.70;;;;;;;;;;5111645;28;20032;-70
2022/04/17 08:20:08;;;;;;;6.35;1.70;;;;;;;;;;5111491;28;20356;-70
2022/04/17 08:22:34;;;;;;;5.55;1.60;;;;;;;;;;5112079;28;20144;-70
2022/04/17 08:24:59;;;;;;;4.45;1.63;;;;;;;;;;5111760;28;20105;-71
2022/04/17 08:27:24;;;;;;;7.28;1.70;;;;;;;;;;5111489;28;20039;-72
2022/04/17 08:29:50;;;;;;;5.05;1.60;;;;;;;;;;5111422;28;20019;-69
2022/04/17 08:32:16;;;;;;;7.57;1.92;;;;;;;;;;5111369;27;20106;-72
2022/04/17 08:34:41;;;;;;;9.70;2.20;;;;;;;;;;5111334;28;20463;-72
2022/04/17 08:37:07;;;;;;;7.75;1.92;;;;;;;;;;5111573;28;20016;-73
2022/04/17 08:39:32;;;;;;;6.20;1.65;;;;;;;;;;5111030;28;20099;-72
2022/04/17 08:42:00;;;;;;;6.18;1.80;;;;;;;;;;5111258;28;20467;-68
2022/04/17 08:44:26;;;;;;;4.80;1.60;;;;;;;;;;5111283;28;20529;-73
2022/04/17 08:46:52;;;;;;;5.60;1.73;;;;;;;;;;5111303;28;20122;-73
2022/04/17 08:49:18;;;;;;;5.60;1.60;;;;;;;;;;5111037;28;20023;-71
2022/04/17 08:51:48;;;;;;;5.78;1.67;;;;;;;;;;5111148;28;20387;-67
2022/04/17 08:54:14;;;;;;;5.60;1.90;;;;;;;;;;5111050;28;20024;-71
2022/04/17 08:56:40;;;;;;;5.85;1.70;;;;;;;;;;5111430;28;20039;-69
2022/04/17 08:59:05;;;;;;;7.78;1.67;;;;;;;;;;5110734;28;20036;-68
2022/04/17 09:01:35;;;;;;;6.32;1.63;;;;;;;;;;5111151;28;20020;-68
2022/04/17 09:04:02;;;;;;;10.27;1.70;;;;;;;;;;5111117;28;20023;-73
2022/04/17 09:06:28;;;;;;;6.80;1.60;;;;;;;;;;5111360;28;20027;-68
2022/04/17 09:08:57;;;;;;;4.05;1.60;;;;;;;;;;5110754;28;20024;-68
2022/04/17 09:11:31;;;;;;;6.13;1.63;;;;;;;;;;5110868;28;20054;-71
2022/04/17 09:14:04;;;;;;;4.00;1.70;;;;;;;;;;5110579;28;20072;-68
2022/04/17 09:16:34;;;;;;;6.32;1.58;;;;;;;;;;5111192;28;20028;-74
2022/04/17 09:19:10;;;;;;;5.40;1.60;;;;;;;;;;5110467;27;20031;-68
2022/04/17 09:21:36;;;;;;;5.35;1.50;;;;;;;;;;5110719;28;20031;-67
2022/04/17 09:24:15;;;;;;;7.43;1.75;;;;;;;;;;5110392;28;20016;-73
2022/04/17 09:26:56;;;;;;;6.20;1.33;;;;;;;;;;5110798;28;20543;-68
2022/04/17 09:29:41;;;;;;;4.85;1.35;;;;;;;;;;5110083;28;20024;-68
2022/04/17 09:32:12;;;;;;;5.18;1.40;;;;;;;;;;5110476;28;20067;-68
2022/04/17 09:34:52;;;;;;;3.78;1.52;;;;;;;;;;5110594;28;20394;-73
2022/04/17 09:37:22;;;;;;;5.03;1.60;;;;;;;;;;5110456;28;20507;-74
2022/04/17 09:39:49;;;;;;;6.63;1.60;;;;;;;;;;5110314;28;20027;-71
2022/04/17 09:42:25;;;;;;;9.07;1.58;;;;;;;;;;5110067;28;20047;-72
2022/04/17 09:44:54;;;;;;;5.15;1.70;;;;;;;;;;5110167;28;20016;-74
2022/04/17 09:47:22;;;;;;;7.55;1.88;;;;;;;;;;5110357;28;20024;-72
2022/04/17 09:49:51;;;;;;;5.60;1.60;;;;;;;;;;5110615;28;20103;-72
2022/04/17 09:52:17;;;;;;;7.70;1.80;;;;;;;;;;5110873;28;20244;-68
2022/04/17 09:54:44;;;;;;;5.43;1.83;;;;;;;;;;5110617;28;20053;-74
2022/04/17 09:57:11;;;;;;;3.70;1.33;;;;;;;;;;5110390;28;20035;-72
2022/04/17 09:59:37;;;;;;;7.30;1.63;;;;;;;;;;5109859;28;20490;-70
2022/04/17 10:02:04;;;;;;;5.35;1.80;;;;;;;;;;5114422;28;20030;-74
2022/04/17 10:04:31;;;;;;;7.38;1.80;;;;;;;;;;5114512;27;20023;-68
2022/04/17 10:06:59;;;;;;;3.95;1.60;;;;;;;;;;5114060;28;20383;-68
2022/04/17 10:09:25;;;;;;;4.68;1.48;;;;;;;;;;5114450;28;20034;-68
2022/04/17 10:11:51;;;;;;;4.28;1.70;;;;;;;;;;5114700;28;20578;-74
2022/04/17 10:14:17;;;;;;;5.78;1.60;;;;;;;;;;5114084;28;20474;-72
2022/04/17 10:16:48;;;;;;;5.35;1.60;;;;;;;;;;5114092;28;20023;-69
2022/04/17 10:19:16;;;;;;;6.28;1.88;;;;;;;;;;5113796;28;20024;-73
2022/04/17 10:21:42;;;;;;;7.75;1.80;;;;;;;;;;5114174;27;20076;-68
2022/04/17 10:24:14;;;;;;;4.68;1.63;;;;;;;;;;5113966;28;20062;-70
2022/04/17 10:26:45;;;;;;;5.32;1.90;;;;;;;;;;5114272;28;20043;-71
2022/04/17 10:29:34;;;;;;;4.07;1.50;;;;;;;;;;5113724;28;20032;-67
2022/04/17 10:32:25;;;;;;;6.07;1.60;;;;;;;;;;5113826;28;20119;-72
2022/04/17 10:35:12;;;;;;;6.35;1.90;;;;;;;;;;5113737;28;20024;-67
2022/04/17 10:38:15;;;;;;;6.20;1.80;;;;;;;;;;5113824;28;20045;-73
2022/04/17 10:40:59;;;;;;;5.63;1.73;;;;;;;;;;5113438;28;20097;-73
2022/04/17 10:43:34;;;;;;;6.60;1.83;;;;;;;;;;5113863;28;20111;-72
2022/04/17 10:46:11;;;;;;;3.83;1.67;;;;;;;;;;5113511;28;20173;-68
2022/04/17 10:48:54;;;;;;;5.28;1.60;;;;;;;;;;5113567;28;20027;-68
2022/04/17 10:51:26;;;;;;;4.82;1.52;;;;;;;;;;5113199;28;20027;-67
2022/04/17 10:53:57;;;;;;;7.53;1.80;;;;;;;;;;5113328;28;20062;-73
2022/04/17 10:56:22;;;;;;;5.47;2.13;;;;;;;;;;5113492;28;20030;-67
2022/04/17 10:58:57;;;;;;;7.15;2.08;;;;;;;;;;5113931;28;20031;-67
2022/04/17 11:01:41;;;;;;;6.30;1.70;;;;;;;;;;5113124;28;20482;-70
2022/04/17 11:04:23;;;;;;;7.32;1.80;;;;;;;;;;5113626;28;20106;-68
2022/04/17 11:07:04;;;;;;;4.07;1.70;;;;;;;;;;5113092;28;20036;-69
2022/04/17 11:09:30;;;;;;;6.88;1.80;;;;;;;;;;5112895;28;20042;-68
2022/04/17 11:12:17;;;;;;;3.45;1.67;;;;;;;;;;5111626;28;20023;-73
2022/04/17 11:14:56;;;;;;;9.18;2.00;;;;;;;;;;5113003;28;20398;-70
2022/04/17 11:17:23;;;;;;;5.90;1.90;;;;;;;;;;5113750;28;20040;-74
2022/04/17 11:19:51;;;;;;;4.40;1.70;;;;;;;;;;5113231;28;20032;-68
2022/04/17 11:22:17;;;;;;;8.27;2.13;;;;;;;;;;5112860;28;20099;-70
2022/04/17 11:24:54;;;;;;;4.97;1.70;;;;;;;;;;5112705;28;20185;-68
2022/04/17 11:27:32;;;;;;;5.38;1.90;;;;;;;;;;5112716;28;20036;-73
2022/04/17 11:30:01;;;;;;;11.15;2.13;;;;;;;;;;5112364;28;20024;-69
2022/04/17 11:32:29;;;;;;;5.50;1.83;;;;;;;;;;5112688;27;20038;-72
2022/04/17 11:35:02;;;;;;;4.20;1.60;;;;;;;;;;5112734;28;20024;-69
2022/04/17 11:37:29;;;;;;;6.43;1.80;;;;;;;;;;5112794;28;20050;-70
2022/04/17 11:39:58;;;;;;;7.82;1.88;;;;;;;;;;5112517;28;20026;-68
2022/04/17 11:42:28;;;;;;;7.43;1.70;;;;;;;;;;5112098;28;20030;-69
2022/04/17 11:44:54;;;;;;;5.82;1.88;;;;;;;;;;5112133;28;20475;-72
2022/04/17 11:47:22;;;;;;;6.70;1.80;;;;;;;;;;5112441;28;20046;-68
2022/04/17 11:49:48;;;;;;;6.47;1.70;;;;;;;;;;5112155;28;20398;-70
2022/04/17 11:52:23;;;;;;;6.15;1.92;;;;;;;;;;5112406;28;20023;-71
2022/04/17 11:54:48;;;;;;;4.22;1.58;;;;;;;;;;5112296;28;20034;-69
2022/04/17 11:57:18;;;;;;;5.50;1.75;;;;;;;;;;5112085;28;20028;-68
2022/04/17 11:59:45;;;;;;;8.75;1.80;;;;;;;;;;5111869;28;20573;-72
2022/04/17 12:02:16;;;;;;;3.88;1.67;;;;;;;;;;5112233;28;20054;-68
2022/04/17 12:05:08;;;;;;;7.65;1.58;;;;;;;;;;5112151;28;20026;-71
2022/04/17 12:07:34;;;;;;;5.65;1.70;;;;;;;;;;5110709;28;20047;-69
2022/04/17 12:10:06;;;;;;;9.25;2.10;;;;;;;;;;5111869;27;20015;-71
2022/04/17 12:12:34;;;;;;;7.07;2.05;;;;;;;;;;5111853;28;20153;-70
2022/04/17 12:15:03;;;;;;;5.75;2.05;;;;;;;;;;5111931;27;20036;-69
2022/04/17 12:17:30;;;;;;;6.80;1.75;;;;;;;;;;5111818;28;20028;-71
2022/04/17 12:19:55;;;;;;;8.90;1.88;;;;;;;;;;5111521;28;20031;-68
2022/04/17 12:22:20;;;;;;;6.30;1.75;;;;;;;;;;5111745;28;20030;-74
2022/04/17 12:24:46;;;;;;;7.32;1.70;;;;;;;;;;5111417;28;20272;-68
2022/04/17 12:27:19;;;;;;;6.35;1.98;;;;;;;;;;5111630;28;20035;-75
2022/04/17 12:29:58;;;;;;;8.60;1.80;;;;;;;;;;5111424;28;20020;-68
2022/04/17 12:32:26;;;;;;;6.85;2.00;;;;;;;;;;5111481;28;20391;-71
2022/04/17 12:34:59;;;;;;;7.10;1.60;;;;;;;;;;5111790;28;20486;-72
2022/04/17 12:37:28;;;;;;;7.55;1.92;;;;;;;;;;5111290;28;20559;-67
2022/04/17 12:40:10;;;;;;;5.38;1.70;;;;;;;;;;5111201;28;20024;-71
2022/04/17 12:42:36;;;;;;;10.25;2.00;;;;;;;;;;5111304;28;20020;-69
2022/04/17 12:45:02;;;;;;;9.13;1.80;;;;;;;;;;5111154;28;20401;-73
2022/04/17 12:47:27;;;;;;;10.00;2.08;;;;;;;;;;5111186;28;20031;-68
2022/04/17 12:50:04;;;;;;;5.70;1.60;;;;;;;;;;5111327;28;20030;-68
2022/04/17 12:52:30;;;;;;;6.65;1.70;;;;;;;;;;5111086;28;20052;-68
2022/04/17 12:54:56;;;;;;;7.32;1.70;;;;;;;;;;5111136;28;20116;-68
2022/04/17 12:57:22;;;;;;;6.25;1.80;;;;;;;;;;5111040;28;20494;-73
2022/04/17 12:59:51;;;;;;;5.25;1.60;;;;;;;;;;5110772;28;20095;-70
2022/04/17 13:02:28;;;;;;;7.05;1.70;;;;;;;;;;5110797;28;20380;-68
2022/04/17 13:04:56;;;;;;;5.70;1.65;;;;;;;;;;5110892;28;20042;-68
2022/04/17 13:07:22;;;;;;;5.03;1.50;;;;;;;;;;5110638;27;20080;-69
2022/04/17 13:09:59;;;;;;;6.45;1.50;;;;;;;;;;5110855;28;20113;-74
2022/04/17 13:12:47;;;;;;;4.95;1.65;;;;;;;;;;5110711;28;20024;-70
2022/04/17 13:15:16;;;;;;;7.60;1.77;;;;;;;;;;5110943;28;20031;-74
2022/04/17 13:17:52;;;;;;;7.15;1.50;;;;;;;;;;5110822;28;20554;-68
2022/04/17 13:20:20;;;;;;;5.90;1.40;;;;;;;;;;5110709;28;20020;-70
2022/04/17 13:22:46;;;;;;;5.85;1.40;;;;;;;;;;5110750;28;20490;-68
2022/04/17 13:25:13;;;;;;;5.07;1.55;;;;;;;;;;5110499;28;20048;-72
2022/04/17 13:27:39;;;;;;;8.05;1.63;;;;;;;;;;5110641;28;20027;-72
2022/04/17 13:30:12;;;;;;;8.60;1.63;;;;;;;;;;5110396;28;20019;-66
2022/04/17 13:32:38;;;;;;;5.63;1.73;;;;;;;;;;5110657;28;20028;-72
2022/04/17 13:35:07;;;;;;;7.32;1.88;;;;;;;;;;5109848;28;20156;-74
2022/04/17 13:40:17;;;;;;;6.90;1.60;;;;;;;;;;5110569;28;20246;-71
2022/04/17 13:42:43;;;;;;;6.53;1.70;;;;;;;;;;5110631;28;20048;-68
2022/04/17 13:45:09;;;;;;;4.93;2.00;;;;;;;;;;5110199;28;20441;-72
2022/04/17 13:47:36;;;;;;;9.00;1.60;;;;;;;;;;5110214;28;20076;-68
2022/04/17 13:50:06;;;;;;;4.97;1.70;;;;;;;;;;5110727;28;20494;-68
2022/04/17 13:52:32;;;;;;;;;;;;;;;;;;5110786;28;20403;-72
2022/04/17 13:54:58;;;;;;;3.80;1.48;;;;;;;;;;5110337;28;19912;-68
2022/04/17 13:57:23;;;;;;;8.95;1.60;;;;;;;;;;5110473;28;20065;-68
2022/04/17 13:59:49;;;;;;;5.85;1.45;;;;;;;;;;5110204;28;20055;-71
2022/04/17 14:02:14;;;;;;;6.68;1.65;;;;;;;;;;5110103;28;20032;-74
2022/04/17 14:04:40;;;;;;;5.47;1.30;;;;;;;;;;5110323;28;20031;-68
2022/04/17 14:07:09;;;;;;;7.15;1.80;;;;;;;;;;5108920;28;20063;-69
2022/04/17 14:09:39;;;;;;;7.38;1.45;;;;;;;;;;5110328;28;20031;-68
2022/04/17 14:12:10;;;;;;;9.33;1.63;;;;;;;;;;5110077;28;20035;-72
2022/04/17 14:14:41;;;;;;;5.22;1.50;;;;;;;;;;5109998;28;20053;-75
2022/04/17 14:17:08;;;;;;;6.50;1.77;;;;;;;;;;5110104;28;20036;-73
2022/04/17 14:19:33;;;;;;;5.60;1.70;;;;;;;;;;5110163;28;20023;-72
2022/04/17 14:21:59;;;;;;;5.00;1.60;;;;;;;;;;5109826;28;20020;-75
2022/04/17 14:24:25;;;;;;;7.70;1.73;;;;;;;;;;5109918;28;20040;-68
2022/04/17 14:26:50;;;;;;;5.25;1.65;;;;;;;;;;5110033;28;20078;-73
2022/04/17 14:29:16;;;;;;;5.20;1.65;;;;;;;;;;5108603;28;20490;-74
2022/04/17 14:31:42;;;;;;;4.45;1.42;;;;;;;;;;5109877;28;20471;-74
2022/04/17 14:34:08;;;;;;;4.45;1.27;;;;;;;;;;5109980;28;20111;-74
2022/04/17 14:36:37;;;;;;;6.40;1.70;;;;;;;;;;5109919;28;20499;-72
2022/04/17 14:39:03;;;;;;;4.85;1.42;;;;;;;;;;5109884;28;20023;-69
2022/04/17 14:41:29;;;;;;;5.38;1.55;;;;;;;;;;5109824;28;20027;-71
2022/04/17 14:43:55;;;;;;;4.13;1.40;;;;;;;;;;5109800;28;20031;-72
2022/04/17 14:46:20;;;;;;;11.23;1.80;;;;;;;;;;5110903;28;20023;-71
2022/04/17 14:48:46;;;;;;;5.65;1.50;;;;;;;;;;5113721;28;20055;-72
2022/04/17 14:51:12;;;;;;;7.50;1.63;;;;;;;;;;5113341;28;20136;-70
2022/04/17 14:53:39;;;;;;;7.35;1.75;;;;;;;;;;5113353;28;20407;-73
2022/04/17 14:56:07;;;;;;;6.60;1.48;;;;;;;;;;5113336;28;20030;-75
2022/04/17 14:58:33;;;;;;;4.97;1.50;;;;;;;;;;5113416;28;20028;-71
2022/04/17 15:00:59;;;;;;;9.60;1.70;;;;;;;;;;5112980;28;20092;-73
2022/04/17 15:03:29;;;;;;;7.43;1.40;;;;;;;;;;5113311;28;20376;-69
2022/04/17 15:05:55;;;;;;;6.38;1.35;;;;;;;;;;5113249;27;20109;-69
2022/04/17 15:08:20;;;;;;;8.88;1.60;;;;;;;;;;5111745;28;20115;-68